This is the latest recevied weather packets stored in our database for station/object IW1RID-3. If no packets are shown the sender has not sent any weather packets the latest 10 day(s).
| Time | Temp. | Humidity | Pressure | Rain* | Wind** | Luminosity | Snow |
|---|---|---|---|---|---|---|---|
| 1777827837 | 18.33° C | 61% | 1076.2 hPa | - | - | - | - |
| 1777826633 | 18.89° C | 60% | 1076.2 hPa | - | - | - | - |
| 1777825428 | 19.44° C | 59% | 1076.3 hPa | - | - | - | - |
| 1777824223 | 20° C | 59% | 1076.4 hPa | - | - | - | - |
| 1777823018 | 20.56° C | 56% | 1076.6 hPa | - | - | - | - |
| 1777821813 | 21.11° C | 53% | 1076.7 hPa | - | - | - | - |
| 1777820608 | 21.11° C | 53% | 1076.6 hPa | - | - | - | - |
| 1777819403 | 20.56° C | 54% | 1076.8 hPa | - | - | - | - |
| 1777818198 | 20.56° C | 54% | 1077.2 hPa | - | - | - | - |
| 1777816993 | 19.44° C | 57% | 1077.5 hPa | - | - | - | - |
| 1777815788 | 20.56° C | 54% | 1077.9 hPa | - | - | - | - |
| 1777814584 | 19.44° C | 57% | 1077.8 hPa | - | - | - | - |
| 1777813378 | 19.44° C | 57% | 1078.2 hPa | - | - | - | - |
| 1777812174 | 18.33° C | 57% | 1078.3 hPa | - | - | - | - |
| 1777810969 | 18.33° C | 60% | 1078.2 hPa | - | - | - | - |
| 1777809764 | 18.89° C | 57% | 1078.4 hPa | - | - | - | - |
| 1777808558 | 18.89° C | 58% | 1078.5 hPa | - | - | - | - |
| 1777807353 | 20° C | 57% | 1078.4 hPa | - | - | - | - |
| 1777806148 | 20.56° C | 56% | 1078.5 hPa | - | - | - | - |
| 1777804944 | 20° C | 57% | 1078.7 hPa | - | - | - | - |
| 1777803739 | 18.89° C | 60% | 1079.3 hPa | - | - | - | - |
| 1777802534 | 18.33° C | 62% | 1079.2 hPa | - | - | - | - |
| 1777801330 | 18.89° C | 60% | 1079.2 hPa | - | - | - | - |
| 1777800125 | 18.33° C | 59% | 1079.2 hPa | - | - | - | - |
| 1777798920 | 18.89° C | 58% | 1078.8 hPa | - | - | - | - |
* Rain since midnight (hover to see other rain measurements)
** Current wind speed in m/s (hover to see current wind gust speed)